sensor_id;sensor_type;location;lat;lon;timestamp;P1;durP1;ratioP1;P2;durP2;ratioP2
77880;SDS011;67077;50.298;18.996;2023-02-12T00:01:49;27.60;;;14.40;;
77880;SDS011;67077;50.298;18.996;2023-02-12T00:04:17;26.40;;;15.40;;
77880;SDS011;67077;50.298;18.996;2023-02-12T00:06:44;28.70;;;15.40;;
77880;SDS011;67077;50.298;18.996;2023-02-12T00:09:11;25.60;;;14.00;;
77880;SDS011;67077;50.298;18.996;2023-02-12T00:11:39;26.50;;;14.30;;
77880;SDS011;67077;50.298;18.996;2023-02-12T00:14:07;23.60;;;12.10;;
77880;SDS011;67077;50.298;18.996;2023-02-12T00:16:35;27.00;;;13.40;;
77880;SDS011;67077;50.298;18.996;2023-02-12T00:19:02;29.30;;;15.80;;
77880;SDS011;67077;50.298;18.996;2023-02-12T00:21:30;34.70;;;18.50;;
77880;SDS011;67077;50.298;18.996;2023-02-12T00:23:57;43.00;;;22.10;;
77880;SDS011;67077;50.298;18.996;2023-02-12T00:26:24;37.70;;;20.30;;
77880;SDS011;67077;50.298;18.996;2023-02-12T00:28:52;44.20;;;22.40;;
77880;SDS011;67077;50.298;18.996;2023-02-12T00:31:21;40.70;;;19.80;;
77880;SDS011;67077;50.298;18.996;2023-02-12T00:33:51;33.30;;;17.30;;
77880;SDS011;67077;50.298;18.996;2023-02-12T00:36:20;31.00;;;15.80;;
77880;SDS011;67077;50.298;18.996;2023-02-12T00:38:50;33.70;;;17.00;;
77880;SDS011;67077;50.298;18.996;2023-02-12T00:41:18;28.00;;;13.10;;
77880;SDS011;67077;50.298;18.996;2023-02-12T00:43:47;31.20;;;16.10;;
77880;SDS011;67077;50.298;18.996;2023-02-12T00:46:15;31.20;;;16.10;;
77880;SDS011;67077;50.298;18.996;2023-02-12T00:48:43;29.90;;;15.10;;
77880;SDS011;67077;50.298;18.996;2023-02-12T00:51:10;36.50;;;17.40;;
77880;SDS011;67077;50.298;18.996;2023-02-12T00:53:37;33.60;;;16.90;;
77880;SDS011;67077;50.298;18.996;2023-02-12T00:56:07;32.40;;;16.00;;
77880;SDS011;67077;50.298;18.996;2023-02-12T00:58:34;26.10;;;12.90;;
77880;SDS011;67077;50.298;18.996;2023-02-12T01:01:03;34.40;;;17.20;;
77880;SDS011;67077;50.298;18.996;2023-02-12T01:03:30;29.00;;;15.30;;
77880;SDS011;67077;50.298;18.996;2023-02-12T01:05:58;35.00;;;18.10;;
77880;SDS011;67077;50.298;18.996;2023-02-12T01:08:26;33.60;;;17.40;;
77880;SDS011;67077;50.298;18.996;2023-02-12T01:10:57;32.60;;;16.40;;
77880;SDS011;67077;50.298;18.996;2023-02-12T01:13:27;31.60;;;16.60;;
77880;SDS011;67077;50.298;18.996;2023-02-12T01:16:06;30.90;;;16.20;;
77880;SDS011;67077;50.298;18.996;2023-02-12T01:18:38;28.90;;;15.10;;
77880;SDS011;67077;50.298;18.996;2023-02-12T01:21:13;27.70;;;15.20;;
77880;SDS011;67077;50.298;18.996;2023-02-12T01:23:44;29.70;;;15.20;;
77880;SDS011;67077;50.298;18.996;2023-02-12T01:26:12;30.30;;;15.90;;
77880;SDS011;67077;50.298;18.996;2023-02-12T01:28:41;36.30;;;16.90;;
77880;SDS011;67077;50.298;18.996;2023-02-12T01:31:13;30.30;;;16.10;;
77880;SDS011;67077;50.298;18.996;2023-02-12T01:33:43;31.10;;;16.10;;
77880;SDS011;67077;50.298;18.996;2023-02-12T01:36:13;29.10;;;15.90;;
77880;SDS011;67077;50.298;18.996;2023-02-12T01:38:40;32.10;;;17.60;;
77880;SDS011;67077;50.298;18.996;2023-02-12T01:43:36;33.30;;;17.60;;
77880;SDS011;67077;50.298;18.996;2023-02-12T01:46:04;34.60;;;18.30;;
77880;SDS011;67077;50.298;18.996;2023-02-12T01:48:33;28.90;;;14.40;;
77880;SDS011;67077;50.298;18.996;2023-02-12T01:51:05;36.00;;;18.30;;
77880;SDS011;67077;50.298;18.996;2023-02-12T01:53:46;36.00;;;18.20;;
77880;SDS011;67077;50.298;18.996;2023-02-12T01:56:21;36.50;;;17.40;;
77880;SDS011;67077;50.298;18.996;2023-02-12T01:58:51;27.40;;;14.00;;
77880;SDS011;67077;50.298;18.996;2023-02-12T02:01:21;33.40;;;16.40;;
77880;SDS011;67077;50.298;18.996;2023-02-12T02:03:55;31.40;;;16.70;;
77880;SDS011;67077;50.298;18.996;2023-02-12T02:06:31;31.90;;;17.00;;
77880;SDS011;67077;50.298;18.996;2023-02-12T02:09:02;32.10;;;16.00;;
77880;SDS011;67077;50.298;18.996;2023-02-12T02:11:29;29.10;;;16.60;;
77880;SDS011;67077;50.298;18.996;2023-02-12T02:14:15;29.60;;;14.90;;
77880;SDS011;67077;50.298;18.996;2023-02-12T02:22:57;23.50;;;13.30;;
77880;SDS011;67077;50.298;18.996;2023-02-12T02:30:59;29.70;;;13.90;;
77880;SDS011;67077;50.298;18.996;2023-02-12T02:39:09;34.90;;;16.70;;
77880;SDS011;67077;50.298;18.996;2023-02-12T02:44:37;33.00;;;15.60;;
77880;SDS011;67077;50.298;18.996;2023-02-12T02:47:28;32.80;;;17.00;;
77880;SDS011;67077;50.298;18.996;2023-02-12T02:50:05;30.30;;;16.10;;
77880;SDS011;67077;50.298;18.996;2023-02-12T02:52:42;35.10;;;16.00;;
77880;SDS011;67077;50.298;18.996;2023-02-12T02:55:26;29.70;;;15.80;;
77880;SDS011;67077;50.298;18.996;2023-02-12T02:58:00;29.90;;;15.10;;
77880;SDS011;67077;50.298;18.996;2023-02-12T03:00:34;30.10;;;13.90;;
77880;SDS011;67077;50.298;18.996;2023-02-12T03:03:17;29.40;;;14.50;;
77880;SDS011;67077;50.298;18.996;2023-02-12T03:05:46;32.70;;;15.70;;
77880;SDS011;67077;50.298;18.996;2023-02-12T03:11:10;25.00;;;12.90;;
77880;SDS011;67077;50.298;18.996;2023-02-12T03:16:39;29.20;;;13.40;;
77880;SDS011;67077;50.298;18.996;2023-02-12T03:19:19;30.60;;;14.20;;
77880;SDS011;67077;50.298;18.996;2023-02-12T03:21:59;24.90;;;13.00;;
77880;SDS011;67077;50.298;18.996;2023-02-12T03:24:35;29.70;;;13.70;;
77880;SDS011;67077;50.298;18.996;2023-02-12T03:27:12;29.00;;;13.60;;
77880;SDS011;67077;50.298;18.996;2023-02-12T03:29:54;34.90;;;14.50;;
77880;SDS011;67077;50.298;18.996;2023-02-12T03:38:08;25.40;;;13.40;;
77880;SDS011;67077;50.298;18.996;2023-02-12T03:43:24;25.90;;;13.40;;
77880;SDS011;67077;50.298;18.996;2023-02-12T03:48:53;25.60;;;13.40;;
77880;SDS011;67077;50.298;18.996;2023-02-12T03:51:37;29.10;;;12.80;;
77880;SDS011;67077;50.298;18.996;2023-02-12T03:54:10;29.70;;;13.50;;
77880;SDS011;67077;50.298;18.996;2023-02-12T03:56:44;29.00;;;13.60;;
77880;SDS011;67077;50.298;18.996;2023-02-12T03:59:18;26.90;;;14.00;;
77880;SDS011;67077;50.298;18.996;2023-02-12T04:01:48;25.40;;;13.80;;
77880;SDS011;67077;50.298;18.996;2023-02-12T04:04:19;30.40;;;13.40;;
77880;SDS011;67077;50.298;18.996;2023-02-12T04:06:48;31.00;;;14.10;;
77880;SDS011;67077;50.298;18.996;2023-02-12T04:09:16;25.30;;;13.30;;
77880;SDS011;67077;50.298;18.996;2023-02-12T04:17:50;30.40;;;14.80;;
77880;SDS011;67077;50.298;18.996;2023-02-12T04:23:46;28.80;;;13.90;;
77880;SDS011;67077;50.298;18.996;2023-02-12T04:26:47;26.30;;;12.80;;
77880;SDS011;67077;50.298;18.996;2023-02-12T04:29:41;23.90;;;13.00;;
77880;SDS011;67077;50.298;18.996;2023-02-12T04:37:54;31.20;;;14.00;;
77880;SDS011;67077;50.298;18.996;2023-02-12T04:40:26;29.30;;;13.20;;
77880;SDS011;67077;50.298;18.996;2023-02-12T04:42:54;25.70;;;12.60;;
77880;SDS011;67077;50.298;18.996;2023-02-12T04:45:22;24.60;;;12.30;;
77880;SDS011;67077;50.298;18.996;2023-02-12T04:47:52;29.00;;;13.20;;
77880;SDS011;67077;50.298;18.996;2023-02-12T04:50:21;24.20;;;12.80;;
77880;SDS011;67077;50.298;18.996;2023-02-12T04:52:48;27.20;;;13.30;;
77880;SDS011;67077;50.298;18.996;2023-02-12T04:55:15;28.50;;;13.30;;
77880;SDS011;67077;50.298;18.996;2023-02-12T04:57:43;25.70;;;13.30;;
77880;SDS011;67077;50.298;18.996;2023-02-12T05:00:11;28.40;;;13.50;;
77880;SDS011;67077;50.298;18.996;2023-02-12T05:02:40;28.00;;;13.40;;
77880;SDS011;67077;50.298;18.996;2023-02-12T05:05:07;29.30;;;13.30;;
77880;SDS011;67077;50.298;18.996;2023-02-12T05:07:34;32.00;;;13.30;;
77880;SDS011;67077;50.298;18.996;2023-02-12T05:10:02;26.90;;;13.60;;
77880;SDS011;67077;50.298;18.996;2023-02-12T05:12:29;30.80;;;13.80;;
77880;SDS011;67077;50.298;18.996;2023-02-12T05:14:56;29.80;;;14.10;;
77880;SDS011;67077;50.298;18.996;2023-02-12T05:17:23;28.50;;;13.60;;
77880;SDS011;67077;50.298;18.996;2023-02-12T05:19:51;27.20;;;12.90;;
77880;SDS011;67077;50.298;18.996;2023-02-12T05:22:18;26.10;;;13.30;;
77880;SDS011;67077;50.298;18.996;2023-02-12T05:24:45;27.60;;;14.20;;
77880;SDS011;67077;50.298;18.996;2023-02-12T05:27:12;31.50;;;15.20;;
77880;SDS011;67077;50.298;18.996;2023-02-12T05:29:39;32.00;;;14.80;;
77880;SDS011;67077;50.298;18.996;2023-02-12T05:32:06;31.00;;;15.50;;
77880;SDS011;67077;50.298;18.996;2023-02-12T05:34:33;32.50;;;14.50;;
77880;SDS011;67077;50.298;18.996;2023-02-12T05:37:00;35.40;;;15.50;;
77880;SDS011;67077;50.298;18.996;2023-02-12T05:39:27;31.40;;;14.10;;
77880;SDS011;67077;50.298;18.996;2023-02-12T05:41:55;32.40;;;14.80;;
77880;SDS011;67077;50.298;18.996;2023-02-12T05:44:21;34.00;;;14.80;;
77880;SDS011;67077;50.298;18.996;2023-02-12T05:46:48;29.60;;;13.40;;
77880;SDS011;67077;50.298;18.996;2023-02-12T05:49:16;30.20;;;13.80;;
77880;SDS011;67077;50.298;18.996;2023-02-12T05:51:43;27.80;;;13.50;;
77880;SDS011;67077;50.298;18.996;2023-02-12T05:54:10;31.50;;;14.20;;
77880;SDS011;67077;50.298;18.996;2023-02-12T05:56:41;29.40;;;13.90;;
77880;SDS011;67077;50.298;18.996;2023-02-12T05:59:14;32.00;;;14.90;;
77880;SDS011;67077;50.298;18.996;2023-02-12T06:01:48;34.00;;;16.20;;
77880;SDS011;67077;50.298;18.996;2023-02-12T06:04:20;29.90;;;14.50;;
77880;SDS011;67077;50.298;18.996;2023-02-12T06:06:50;40.20;;;18.10;;
77880;SDS011;67077;50.298;18.996;2023-02-12T06:09:19;43.80;;;18.80;;
77880;SDS011;67077;50.298;18.996;2023-02-12T06:11:46;35.80;;;18.00;;
77880;SDS011;67077;50.298;18.996;2023-02-12T06:14:15;33.80;;;16.90;;
77880;SDS011;67077;50.298;18.996;2023-02-12T06:16:45;31.90;;;16.20;;
77880;SDS011;67077;50.298;18.996;2023-02-12T06:19:14;38.90;;;17.00;;
77880;SDS011;67077;50.298;18.996;2023-02-12T06:21:42;28.80;;;13.00;;
77880;SDS011;67077;50.298;18.996;2023-02-12T06:24:13;27.80;;;13.00;;
77880;SDS011;67077;50.298;18.996;2023-02-12T06:26:41;25.90;;;12.20;;
77880;SDS011;67077;50.298;18.996;2023-02-12T06:29:09;26.00;;;11.40;;
77880;SDS011;67077;50.298;18.996;2023-02-12T06:31:36;23.60;;;11.00;;
77880;SDS011;67077;50.298;18.996;2023-02-12T06:34:04;24.30;;;10.80;;
77880;SDS011;67077;50.298;18.996;2023-02-12T06:36:35;26.40;;;11.00;;
77880;SDS011;67077;50.298;18.996;2023-02-12T06:39:04;26.20;;;10.40;;
77880;SDS011;67077;50.298;18.996;2023-02-12T06:41:32;21.20;;;9.10;;
77880;SDS011;67077;50.298;18.996;2023-02-12T06:43:59;21.60;;;9.40;;
77880;SDS011;67077;50.298;18.996;2023-02-12T06:46:27;24.80;;;9.10;;
77880;SDS011;67077;50.298;18.996;2023-02-12T06:48:55;21.80;;;10.00;;
77880;SDS011;67077;50.298;18.996;2023-02-12T06:51:24;20.00;;;9.00;;
77880;SDS011;67077;50.298;18.996;2023-02-12T06:53:52;21.50;;;8.80;;
77880;SDS011;67077;50.298;18.996;2023-02-12T06:56:22;21.10;;;9.10;;
77880;SDS011;67077;50.298;18.996;2023-02-12T06:58:51;23.10;;;9.80;;
77880;SDS011;67077;50.298;18.996;2023-02-12T07:01:25;22.60;;;8.70;;
77880;SDS011;67077;50.298;18.996;2023-02-12T07:03:55;17.40;;;8.20;;
77880;SDS011;67077;50.298;18.996;2023-02-12T07:06:25;18.50;;;7.70;;
77880;SDS011;67077;50.298;18.996;2023-02-12T07:08:55;20.60;;;9.00;;
77880;SDS011;67077;50.298;18.996;2023-02-12T07:11:26;20.80;;;9.40;;
77880;SDS011;67077;50.298;18.996;2023-02-12T07:13:55;19.80;;;8.90;;
77880;SDS011;67077;50.298;18.996;2023-02-12T07:16:23;18.20;;;7.70;;
77880;SDS011;67077;50.298;18.996;2023-02-12T07:18:52;19.20;;;8.80;;
77880;SDS011;67077;50.298;18.996;2023-02-12T07:21:19;24.90;;;9.90;;
77880;SDS011;67077;50.298;18.996;2023-02-12T07:23:47;19.00;;;8.60;;
77880;SDS011;67077;50.298;18.996;2023-02-12T07:26:16;31.70;;;10.70;;
77880;SDS011;67077;50.298;18.996;2023-02-12T07:28:44;28.60;;;10.20;;
77880;SDS011;67077;50.298;18.996;2023-02-12T07:31:12;24.40;;;10.30;;
77880;SDS011;67077;50.298;18.996;2023-02-12T07:33:45;21.50;;;8.90;;
77880;SDS011;67077;50.298;18.996;2023-02-12T07:36:14;16.40;;;6.90;;
77880;SDS011;67077;50.298;18.996;2023-02-12T07:38:46;17.40;;;7.70;;
77880;SDS011;67077;50.298;18.996;2023-02-12T07:41:14;16.60;;;7.50;;
77880;SDS011;67077;50.298;18.996;2023-02-12T07:43:42;15.80;;;6.30;;
77880;SDS011;67077;50.298;18.996;2023-02-12T07:48:43;19.10;;;7.80;;
77880;SDS011;67077;50.298;18.996;2023-02-12T07:51:34;20.10;;;7.90;;
77880;SDS011;67077;50.298;18.996;2023-02-12T07:54:02;19.90;;;7.10;;
77880;SDS011;67077;50.298;18.996;2023-02-12T07:56:31;16.30;;;6.70;;
77880;SDS011;67077;50.298;18.996;2023-02-12T07:59:06;14.80;;;5.40;;
77880;SDS011;67077;50.298;18.996;2023-02-12T08:01:45;12.10;;;5.70;;
77880;SDS011;67077;50.298;18.996;2023-02-12T08:04:22;12.80;;;5.00;;
77880;SDS011;67077;50.298;18.996;2023-02-12T08:06:52;15.20;;;5.90;;
77880;SDS011;67077;50.298;18.996;2023-02-12T08:09:25;12.80;;;4.90;;
77880;SDS011;67077;50.298;18.996;2023-02-12T08:11:57;14.00;;;6.10;;
77880;SDS011;67077;50.298;18.996;2023-02-12T08:14:26;9.90;;;4.20;;
77880;SDS011;67077;50.298;18.996;2023-02-12T08:16:54;12.10;;;4.10;;
77880;SDS011;67077;50.298;18.996;2023-02-12T08:19:21;7.60;;;3.40;;
77880;SDS011;67077;50.298;18.996;2023-02-12T08:21:49;12.30;;;4.40;;
77880;SDS011;67077;50.298;18.996;2023-02-12T08:24:17;11.50;;;4.60;;
77880;SDS011;67077;50.298;18.996;2023-02-12T08:26:44;12.50;;;5.50;;
77880;SDS011;67077;50.298;18.996;2023-02-12T08:29:12;9.40;;;4.50;;
77880;SDS011;67077;50.298;18.996;2023-02-12T08:31:45;8.60;;;3.80;;
77880;SDS011;67077;50.298;18.996;2023-02-12T08:34:17;10.10;;;4.80;;
77880;SDS011;67077;50.298;18.996;2023-02-12T08:36:47;10.70;;;4.80;;
77880;SDS011;67077;50.298;18.996;2023-02-12T08:39:15;14.10;;;6.00;;
77880;SDS011;67077;50.298;18.996;2023-02-12T08:41:43;11.70;;;4.90;;
77880;SDS011;67077;50.298;18.996;2023-02-12T08:44:12;15.20;;;6.70;;
77880;SDS011;67077;50.298;18.996;2023-02-12T08:46:41;11.40;;;4.80;;
77880;SDS011;67077;50.298;18.996;2023-02-12T08:49:16;12.20;;;4.90;;
77880;SDS011;67077;50.298;18.996;2023-02-12T08:51:47;8.20;;;4.00;;
77880;SDS011;67077;50.298;18.996;2023-02-12T08:54:18;10.00;;;4.10;;
77880;SDS011;67077;50.298;18.996;2023-02-12T08:56:47;10.20;;;4.50;;
77880;SDS011;67077;50.298;18.996;2023-02-12T08:59:14;10.00;;;4.30;;
77880;SDS011;67077;50.298;18.996;2023-02-12T09:01:43;10.80;;;4.80;;
77880;SDS011;67077;50.298;18.996;2023-02-12T09:04:14;10.20;;;4.90;;
77880;SDS011;67077;50.298;18.996;2023-02-12T09:06:47;11.50;;;5.00;;
77880;SDS011;67077;50.298;18.996;2023-02-12T09:09:15;11.80;;;4.80;;
77880;SDS011;67077;50.298;18.996;2023-02-12T09:11:42;10.10;;;4.90;;
77880;SDS011;67077;50.298;18.996;2023-02-12T09:14:11;12.40;;;5.20;;
77880;SDS011;67077;50.298;18.996;2023-02-12T09:19:12;13.80;;;5.60;;
77880;SDS011;67077;50.298;18.996;2023-02-12T09:21:41;11.60;;;5.10;;
77880;SDS011;67077;50.298;18.996;2023-02-12T09:24:11;8.90;;;4.10;;
77880;SDS011;67077;50.298;18.996;2023-02-12T09:26:38;12.20;;;5.20;;
77880;SDS011;67077;50.298;18.996;2023-02-12T09:29:05;9.00;;;4.10;;
77880;SDS011;67077;50.298;18.996;2023-02-12T09:31:33;7.70;;;3.70;;
77880;SDS011;67077;50.298;18.996;2023-02-12T09:34:01;11.30;;;4.90;;
77880;SDS011;67077;50.298;18.996;2023-02-12T09:36:31;11.00;;;5.00;;
77880;SDS011;67077;50.298;18.996;2023-02-12T09:38:59;12.40;;;5.20;;
77880;SDS011;67077;50.298;18.996;2023-02-12T09:44:24;10.00;;;4.70;;
77880;SDS011;67077;50.298;18.996;2023-02-12T09:52:27;10.50;;;4.30;;
77880;SDS011;67077;50.298;18.996;2023-02-12T09:54:56;10.20;;;5.00;;
77880;SDS011;67077;50.298;18.996;2023-02-12T09:57:26;12.10;;;5.50;;
77880;SDS011;67077;50.298;18.996;2023-02-12T10:02:41;12.60;;;5.40;;
77880;SDS011;67077;50.298;18.996;2023-02-12T10:05:19;10.80;;;5.20;;
77880;SDS011;67077;50.298;18.996;2023-02-12T10:10:51;8.50;;;4.20;;
77880;SDS011;67077;50.298;18.996;2023-02-12T10:26:54;12.70;;;5.10;;
77880;SDS011;67077;50.298;18.996;2023-02-12T10:29:33;13.40;;;6.00;;
77880;SDS011;67077;50.298;18.996;2023-02-12T10:34:53;14.40;;;6.40;;
77880;SDS011;67077;50.298;18.996;2023-02-12T10:37:27;12.90;;;6.40;;
77880;SDS011;67077;50.298;18.996;2023-02-12T10:40:13;15.00;;;7.00;;
77880;SDS011;67077;50.298;18.996;2023-02-12T10:42:46;14.20;;;6.80;;
77880;SDS011;67077;50.298;18.996;2023-02-12T10:45:20;10.50;;;5.40;;
77880;SDS011;67077;50.298;18.996;2023-02-12T10:48:18;16.30;;;6.70;;
77880;SDS011;67077;50.298;18.996;2023-02-12T10:53:34;12.00;;;5.90;;
77880;SDS011;67077;50.298;18.996;2023-02-12T10:58:42;13.00;;;7.00;;
77880;SDS011;67077;50.298;18.996;2023-02-12T11:03:55;15.10;;;7.50;;
77880;SDS011;67077;50.298;18.996;2023-02-12T11:06:28;13.70;;;7.10;;
77880;SDS011;67077;50.298;18.996;2023-02-12T11:09:00;16.70;;;7.80;;
77880;SDS011;67077;50.298;18.996;2023-02-12T11:11:30;17.10;;;8.20;;
77880;SDS011;67077;50.298;18.996;2023-02-12T11:14:04;19.60;;;9.00;;
77880;SDS011;67077;50.298;18.996;2023-02-12T11:16:50;12.90;;;6.80;;
77880;SDS011;67077;50.298;18.996;2023-02-12T11:19:20;12.30;;;6.40;;
77880;SDS011;67077;50.298;18.996;2023-02-12T11:21:50;15.70;;;7.20;;
77880;SDS011;67077;50.298;18.996;2023-02-12T11:24:21;18.90;;;7.50;;
77880;SDS011;67077;50.298;18.996;2023-02-12T11:27:22;15.40;;;7.00;;
77880;SDS011;67077;50.298;18.996;2023-02-12T11:30:12;13.20;;;7.20;;
77880;SDS011;67077;50.298;18.996;2023-02-12T11:32:48;13.90;;;7.60;;
77880;SDS011;67077;50.298;18.996;2023-02-12T11:35:18;13.90;;;5.80;;
77880;SDS011;67077;50.298;18.996;2023-02-12T11:37:57;13.80;;;5.80;;
77880;SDS011;67077;50.298;18.996;2023-02-12T11:40:30;11.80;;;6.00;;
77880;SDS011;67077;50.298;18.996;2023-02-12T11:43:00;15.30;;;6.90;;
77880;SDS011;67077;50.298;18.996;2023-02-12T11:45:33;16.40;;;8.20;;
77880;SDS011;67077;50.298;18.996;2023-02-12T11:48:17;15.60;;;7.30;;
77880;SDS011;67077;50.298;18.996;2023-02-12T11:50:53;12.50;;;6.40;;
77880;SDS011;67077;50.298;18.996;2023-02-12T11:56:10;13.80;;;6.70;;
77880;SDS011;67077;50.298;18.996;2023-02-12T11:58:40;12.30;;;6.30;;
77880;SDS011;67077;50.298;18.996;2023-02-12T12:06:33;9.90;;;4.90;;
77880;SDS011;67077;50.298;18.996;2023-02-12T12:20:08;10.10;;;4.50;;
77880;SDS011;67077;50.298;18.996;2023-02-12T12:22:53;12.90;;;4.60;;
77880;SDS011;67077;50.298;18.996;2023-02-12T12:25:29;9.50;;;4.30;;
77880;SDS011;67077;50.298;18.996;2023-02-12T12:33:13;12.40;;;4.90;;
77880;SDS011;67077;50.298;18.996;2023-02-12T12:41:26;10.10;;;4.70;;
77880;SDS011;67077;50.298;18.996;2023-02-12T12:46:46;12.40;;;4.30;;
77880;SDS011;67077;50.298;18.996;2023-02-12T12:49:35;11.30;;;5.10;;
77880;SDS011;67077;50.298;18.996;2023-02-12T12:54:54;10.40;;;5.30;;
77880;SDS011;67077;50.298;18.996;2023-02-12T13:11:38;14.50;;;6.70;;
77880;SDS011;67077;50.298;18.996;2023-02-12T13:14:16;18.80;;;7.30;;
77880;SDS011;67077;50.298;18.996;2023-02-12T13:16:59;17.00;;;7.70;;
77880;SDS011;67077;50.298;18.996;2023-02-12T13:25:39;16.80;;;8.20;;
77880;SDS011;67077;50.298;18.996;2023-02-12T13:28:17;15.90;;;7.50;;
77880;SDS011;67077;50.298;18.996;2023-02-12T13:31:01;15.50;;;7.60;;
77880;SDS011;67077;50.298;18.996;2023-02-12T13:36:12;18.70;;;8.30;;
77880;SDS011;67077;50.298;18.996;2023-02-12T13:38:48;15.50;;;7.80;;
77880;SDS011;67077;50.298;18.996;2023-02-12T13:41:21;16.00;;;7.80;;
77880;SDS011;67077;50.298;18.996;2023-02-12T13:44:01;15.50;;;8.10;;
77880;SDS011;67077;50.298;18.996;2023-02-12T13:46:50;16.50;;;7.60;;
77880;SDS011;67077;50.298;18.996;2023-02-12T13:49:34;17.50;;;8.20;;
77880;SDS011;67077;50.298;18.996;2023-02-12T13:52:06;16.70;;;8.10;;
77880;SDS011;67077;50.298;18.996;2023-02-12T13:57:16;19.70;;;8.60;;
77880;SDS011;67077;50.298;18.996;2023-02-12T13:59:47;19.00;;;8.50;;
77880;SDS011;67077;50.298;18.996;2023-02-12T14:05:04;14.20;;;7.20;;
77880;SDS011;67077;50.298;18.996;2023-02-12T14:07:48;16.80;;;7.50;;
77880;SDS011;67077;50.298;18.996;2023-02-12T14:10:25;20.10;;;8.10;;
77880;SDS011;67077;50.298;18.996;2023-02-12T14:12:58;17.40;;;8.50;;
77880;SDS011;67077;50.298;18.996;2023-02-12T14:15:45;17.60;;;8.00;;
77880;SDS011;67077;50.298;18.996;2023-02-12T14:18:33;18.80;;;8.90;;
77880;SDS011;67077;50.298;18.996;2023-02-12T14:21:47;22.50;;;9.70;;
77880;SDS011;67077;50.298;18.996;2023-02-12T14:23:56;17.90;;;8.60;;
77880;SDS011;67077;50.298;18.996;2023-02-12T14:27:02;16.40;;;8.00;;
77880;SDS011;67077;50.298;18.996;2023-02-12T14:29:32;15.40;;;7.30;;
77880;SDS011;67077;50.298;18.996;2023-02-12T14:32:01;17.80;;;7.40;;
77880;SDS011;67077;50.298;18.996;2023-02-12T14:43:00;14.70;;;6.80;;
77880;SDS011;67077;50.298;18.996;2023-02-12T14:45:35;17.10;;;8.30;;
77880;SDS011;67077;50.298;18.996;2023-02-12T14:48:04;16.60;;;7.70;;
77880;SDS011;67077;50.298;18.996;2023-02-12T14:50:38;15.60;;;7.50;;
77880;SDS011;67077;50.298;18.996;2023-02-12T14:53:21;18.00;;;7.70;;
77880;SDS011;67077;50.298;18.996;2023-02-12T14:55:53;16.10;;;7.30;;
77880;SDS011;67077;50.298;18.996;2023-02-12T14:58:22;12.90;;;6.30;;
77880;SDS011;67077;50.298;18.996;2023-02-12T15:00:53;14.40;;;6.80;;
77880;SDS011;67077;50.298;18.996;2023-02-12T15:03:33;15.80;;;7.10;;
77880;SDS011;67077;50.298;18.996;2023-02-12T15:06:10;16.50;;;7.60;;
77880;SDS011;67077;50.298;18.996;2023-02-12T15:08:44;14.80;;;6.70;;
77880;SDS011;67077;50.298;18.996;2023-02-12T15:14:04;19.90;;;9.00;;
77880;SDS011;67077;50.298;18.996;2023-02-12T15:19:40;18.90;;;8.90;;
77880;SDS011;67077;50.298;18.996;2023-02-12T15:22:16;22.20;;;9.90;;
77880;SDS011;67077;50.298;18.996;2023-02-12T15:28:00;24.60;;;11.50;;
77880;SDS011;67077;50.298;18.996;2023-02-12T15:30:31;22.10;;;10.90;;
77880;SDS011;67077;50.298;18.996;2023-02-12T15:33:03;26.50;;;10.40;;
77880;SDS011;67077;50.298;18.996;2023-02-12T15:35:33;24.00;;;11.40;;
77880;SDS011;67077;50.298;18.996;2023-02-12T15:38:04;20.80;;;10.40;;
77880;SDS011;67077;50.298;18.996;2023-02-12T15:40:37;22.30;;;11.40;;
77880;SDS011;67077;50.298;18.996;2023-02-12T15:43:25;28.20;;;13.80;;
77880;SDS011;67077;50.298;18.996;2023-02-12T15:46:01;36.30;;;16.70;;
77880;SDS011;67077;50.298;18.996;2023-02-12T15:48:35;36.30;;;18.10;;
77880;SDS011;67077;50.298;18.996;2023-02-12T15:51:08;39.30;;;19.70;;
77880;SDS011;67077;50.298;18.996;2023-02-12T15:53:39;57.00;;;25.00;;
77880;SDS011;67077;50.298;18.996;2023-02-12T15:56:14;59.60;;;26.70;;
77880;SDS011;67077;50.298;18.996;2023-02-12T15:58:50;53.00;;;24.50;;
77880;SDS011;67077;50.298;18.996;2023-02-12T16:01:23;47.20;;;21.40;;
77880;SDS011;67077;50.298;18.996;2023-02-12T16:03:56;44.40;;;21.50;;
77880;SDS011;67077;50.298;18.996;2023-02-12T16:06:26;50.70;;;24.70;;
77880;SDS011;67077;50.298;18.996;2023-02-12T16:09:07;54.80;;;26.80;;
77880;SDS011;67077;50.298;18.996;2023-02-12T16:11:53;74.60;;;39.60;;
77880;SDS011;67077;50.298;18.996;2023-02-12T16:14:24;57.70;;;28.50;;
77880;SDS011;67077;50.298;18.996;2023-02-12T16:16:54;52.60;;;25.40;;
77880;SDS011;67077;50.298;18.996;2023-02-12T16:19:28;52.90;;;25.60;;
77880;SDS011;67077;50.298;18.996;2023-02-12T16:27:20;49.00;;;24.40;;
77880;SDS011;67077;50.298;18.996;2023-02-12T16:29:57;51.80;;;24.10;;
77880;SDS011;67077;50.298;18.996;2023-02-12T16:37:57;53.20;;;23.40;;
77880;SDS011;67077;50.298;18.996;2023-02-12T16:40:38;50.60;;;23.90;;
77880;SDS011;67077;50.298;18.996;2023-02-12T16:43:27;54.80;;;24.20;;
77880;SDS011;67077;50.298;18.996;2023-02-12T16:46:00;52.30;;;24.60;;
77880;SDS011;67077;50.298;18.996;2023-02-12T16:48:35;56.80;;;25.30;;
77880;SDS011;67077;50.298;18.996;2023-02-12T16:51:25;59.80;;;25.80;;
77880;SDS011;67077;50.298;18.996;2023-02-12T16:53:57;58.60;;;26.80;;
77880;SDS011;67077;50.298;18.996;2023-02-12T16:56:30;64.10;;;28.70;;
77880;SDS011;67077;50.298;18.996;2023-02-12T16:59:00;59.90;;;27.30;;
77880;SDS011;67077;50.298;18.996;2023-02-12T17:01:32;56.40;;;26.20;;
77880;SDS011;67077;50.298;18.996;2023-02-12T17:04:05;61.90;;;28.40;;
77880;SDS011;67077;50.298;18.996;2023-02-12T17:06:34;58.50;;;27.60;;
77880;SDS011;67077;50.298;18.996;2023-02-12T17:09:02;55.00;;;25.90;;
77880;SDS011;67077;50.298;18.996;2023-02-12T17:11:29;57.40;;;26.20;;
77880;SDS011;67077;50.298;18.996;2023-02-12T17:13:59;57.90;;;26.20;;
77880;SDS011;67077;50.298;18.996;2023-02-12T17:16:38;58.00;;;27.40;;
77880;SDS011;67077;50.298;18.996;2023-02-12T17:19:05;64.40;;;28.30;;
77880;SDS011;67077;50.298;18.996;2023-02-12T17:21:53;67.40;;;31.60;;
77880;SDS011;67077;50.298;18.996;2023-02-12T17:24:26;69.60;;;32.60;;
77880;SDS011;67077;50.298;18.996;2023-02-12T17:27:00;73.00;;;31.60;;
77880;SDS011;67077;50.298;18.996;2023-02-12T17:29:33;71.10;;;31.70;;
77880;SDS011;67077;50.298;18.996;2023-02-12T17:32:02;68.60;;;32.40;;
77880;SDS011;67077;50.298;18.996;2023-02-12T17:34:30;79.00;;;34.10;;
77880;SDS011;67077;50.298;18.996;2023-02-12T17:36:58;78.20;;;35.10;;
77880;SDS011;67077;50.298;18.996;2023-02-12T17:39:26;72.60;;;33.50;;
77880;SDS011;67077;50.298;18.996;2023-02-12T17:42:00;66.40;;;33.10;;
77880;SDS011;67077;50.298;18.996;2023-02-12T17:44:32;68.50;;;30.50;;
77880;SDS011;67077;50.298;18.996;2023-02-12T17:46:59;61.30;;;28.50;;
77880;SDS011;67077;50.298;18.996;2023-02-12T17:49:27;64.40;;;29.40;;
77880;SDS011;67077;50.298;18.996;2023-02-12T17:52:12;58.40;;;28.10;;
77880;SDS011;67077;50.298;18.996;2023-02-12T17:54:42;59.60;;;27.50;;
77880;SDS011;67077;50.298;18.996;2023-02-12T17:57:13;58.70;;;26.20;;